sensor_id;sensor_type;location;lat;lon;timestamp;P1;durP1;ratioP1;P2;durP2;ratioP2
40501;SDS011;29631;49.168;9.848;2023-07-20T00:00:50;1.65;;;1.42;;
40501;SDS011;29631;49.168;9.848;2023-07-20T00:03:18;1.85;;;1.75;;
40501;SDS011;29631;49.168;9.848;2023-07-20T00:05:48;2.00;;;1.85;;
40501;SDS011;29631;49.168;9.848;2023-07-20T00:08:15;1.67;;;1.58;;
40501;SDS011;29631;49.168;9.848;2023-07-20T00:10:42;1.92;;;1.77;;
40501;SDS011;29631;49.168;9.848;2023-07-20T00:13:09;1.75;;;1.65;;
40501;SDS011;29631;49.168;9.848;2023-07-20T00:15:36;2.08;;;1.70;;
40501;SDS011;29631;49.168;9.848;2023-07-20T00:18:02;1.67;;;1.58;;
40501;SDS011;29631;49.168;9.848;2023-07-20T00:20:31;1.98;;;1.88;;
40501;SDS011;29631;49.168;9.848;2023-07-20T00:22:57;1.92;;;1.83;;
40501;SDS011;29631;49.168;9.848;2023-07-20T00:25:23;1.95;;;1.83;;
40501;SDS011;29631;49.168;9.848;2023-07-20T00:27:49;1.98;;;1.63;;
40501;SDS011;29631;49.168;9.848;2023-07-20T00:30:15;1.95;;;1.73;;
40501;SDS011;29631;49.168;9.848;2023-07-20T00:32:42;3.00;;;1.70;;
40501;SDS011;29631;49.168;9.848;2023-07-20T00:35:08;4.60;;;1.83;;
40501;SDS011;29631;49.168;9.848;2023-07-20T00:37:34;2.00;;;1.90;;
40501;SDS011;29631;49.168;9.848;2023-07-20T00:40:00;1.98;;;1.88;;
40501;SDS011;29631;49.168;9.848;2023-07-20T00:42:27;2.15;;;2.03;;
40501;SDS011;29631;49.168;9.848;2023-07-20T00:44:53;1.83;;;1.75;;
40501;SDS011;29631;49.168;9.848;2023-07-20T00:47:18;1.88;;;1.77;;
40501;SDS011;29631;49.168;9.848;2023-07-20T00:49:44;1.70;;;1.60;;
40501;SDS011;29631;49.168;9.848;2023-07-20T00:52:11;2.00;;;1.85;;
40501;SDS011;29631;49.168;9.848;2023-07-20T00:54:40;3.80;;;1.60;;
40501;SDS011;29631;49.168;9.848;2023-07-20T00:57:07;1.80;;;1.70;;
40501;SDS011;29631;49.168;9.848;2023-07-20T00:59:34;2.33;;;1.67;;
40501;SDS011;29631;49.168;9.848;2023-07-20T01:02:01;2.38;;;1.65;;
40501;SDS011;29631;49.168;9.848;2023-07-20T01:04:27;5.07;;;1.77;;
40501;SDS011;29631;49.168;9.848;2023-07-20T01:09:36;1.77;;;1.70;;
40501;SDS011;29631;49.168;9.848;2023-07-20T01:14:38;3.03;;;1.77;;
40501;SDS011;29631;49.168;9.848;2023-07-20T01:17:05;3.63;;;2.00;;
40501;SDS011;29631;49.168;9.848;2023-07-20T01:19:30;1.83;;;1.70;;
40501;SDS011;29631;49.168;9.848;2023-07-20T01:22:21;1.80;;;1.70;;
40501;SDS011;29631;49.168;9.848;2023-07-20T01:33:50;2.42;;;1.70;;
40501;SDS011;29631;49.168;9.848;2023-07-20T01:36:19;1.98;;;1.80;;
40501;SDS011;29631;49.168;9.848;2023-07-20T01:38:46;1.73;;;1.48;;
40501;SDS011;29631;49.168;9.848;2023-07-20T01:41:12;2.10;;;1.95;;
40501;SDS011;29631;49.168;9.848;2023-07-20T01:43:39;1.77;;;1.67;;
40501;SDS011;29631;49.168;9.848;2023-07-20T01:46:05;3.17;;;2.13;;
40501;SDS011;29631;49.168;9.848;2023-07-20T01:48:31;1.73;;;1.63;;
40501;SDS011;29631;49.168;9.848;2023-07-20T01:50:57;1.90;;;1.80;;
40501;SDS011;29631;49.168;9.848;2023-07-20T01:53:23;3.15;;;1.88;;
40501;SDS011;29631;49.168;9.848;2023-07-20T01:55:49;1.88;;;1.73;;
40501;SDS011;29631;49.168;9.848;2023-07-20T01:58:17;4.13;;;1.73;;
40501;SDS011;29631;49.168;9.848;2023-07-20T02:00:42;2.17;;;2.05;;
40501;SDS011;29631;49.168;9.848;2023-07-20T02:03:08;2.03;;;1.88;;
40501;SDS011;29631;49.168;9.848;2023-07-20T02:05:34;1.90;;;1.80;;
40501;SDS011;29631;49.168;9.848;2023-07-20T02:08:00;1.85;;;1.70;;
40501;SDS011;29631;49.168;9.848;2023-07-20T02:10:25;2.03;;;1.90;;
40501;SDS011;29631;49.168;9.848;2023-07-20T02:12:51;2.00;;;1.88;;
40501;SDS011;29631;49.168;9.848;2023-07-20T02:15:17;1.98;;;1.80;;
40501;SDS011;29631;49.168;9.848;2023-07-20T02:17:43;1.92;;;1.83;;
40501;SDS011;29631;49.168;9.848;2023-07-20T02:20:09;2.10;;;2.00;;
40501;SDS011;29631;49.168;9.848;2023-07-20T02:22:36;1.70;;;1.60;;
40501;SDS011;29631;49.168;9.848;2023-07-20T02:25:03;1.95;;;1.85;;
40501;SDS011;29631;49.168;9.848;2023-07-20T02:27:33;2.95;;;1.80;;
40501;SDS011;29631;49.168;9.848;2023-07-20T02:29:59;1.80;;;1.70;;
40501;SDS011;29631;49.168;9.848;2023-07-20T02:32:25;3.42;;;1.90;;
40501;SDS011;29631;49.168;9.848;2023-07-20T02:34:51;3.30;;;1.80;;
40501;SDS011;29631;49.168;9.848;2023-07-20T02:37:17;1.80;;;1.70;;
40501;SDS011;29631;49.168;9.848;2023-07-20T02:39:42;2.40;;;1.73;;
40501;SDS011;29631;49.168;9.848;2023-07-20T02:42:09;1.92;;;1.83;;
40501;SDS011;29631;49.168;9.848;2023-07-20T02:44:34;3.13;;;1.63;;
40501;SDS011;29631;49.168;9.848;2023-07-20T02:47:00;1.92;;;1.83;;
40501;SDS011;29631;49.168;9.848;2023-07-20T02:49:26;1.90;;;1.80;;
40501;SDS011;29631;49.168;9.848;2023-07-20T02:51:52;1.67;;;1.58;;
40501;SDS011;29631;49.168;9.848;2023-07-20T02:54:18;2.90;;;1.80;;
40501;SDS011;29631;49.168;9.848;2023-07-20T02:56:43;2.10;;;2.00;;
40501;SDS011;29631;49.168;9.848;2023-07-20T02:59:09;3.13;;;2.10;;
40501;SDS011;29631;49.168;9.848;2023-07-20T03:01:35;1.90;;;1.80;;
40501;SDS011;29631;49.168;9.848;2023-07-20T03:04:01;2.20;;;1.67;;
40501;SDS011;29631;49.168;9.848;2023-07-20T03:06:27;2.20;;;2.10;;
40501;SDS011;29631;49.168;9.848;2023-07-20T03:08:53;2.20;;;2.00;;
40501;SDS011;29631;49.168;9.848;2023-07-20T03:11:19;1.73;;;1.63;;
40501;SDS011;29631;49.168;9.848;2023-07-20T03:13:46;1.90;;;1.80;;
40501;SDS011;29631;49.168;9.848;2023-07-20T03:16:13;1.60;;;1.60;;
40501;SDS011;29631;49.168;9.848;2023-07-20T03:18:42;11.25;;;1.90;;
40501;SDS011;29631;49.168;9.848;2023-07-20T03:21:09;1.80;;;1.70;;
40501;SDS011;29631;49.168;9.848;2023-07-20T03:23:36;1.90;;;1.77;;
40501;SDS011;29631;49.168;9.848;2023-07-20T03:26:03;1.73;;;1.63;;
40501;SDS011;29631;49.168;9.848;2023-07-20T03:28:29;2.20;;;2.10;;
40501;SDS011;29631;49.168;9.848;2023-07-20T03:30:58;2.70;;;1.95;;
40501;SDS011;29631;49.168;9.848;2023-07-20T03:33:28;1.88;;;1.77;;
40501;SDS011;29631;49.168;9.848;2023-07-20T03:35:55;2.05;;;1.95;;
40501;SDS011;29631;49.168;9.848;2023-07-20T03:38:21;1.92;;;1.80;;
40501;SDS011;29631;49.168;9.848;2023-07-20T03:40:51;2.03;;;1.92;;
40501;SDS011;29631;49.168;9.848;2023-07-20T03:43:22;1.98;;;1.85;;
40501;SDS011;29631;49.168;9.848;2023-07-20T03:45:49;2.08;;;1.80;;
40501;SDS011;29631;49.168;9.848;2023-07-20T03:48:15;1.90;;;1.80;;
40501;SDS011;29631;49.168;9.848;2023-07-20T03:50:46;2.05;;;1.60;;
40501;SDS011;29631;49.168;9.848;2023-07-20T03:53:13;4.47;;;1.73;;
40501;SDS011;29631;49.168;9.848;2023-07-20T03:55:40;1.80;;;1.70;;
40501;SDS011;29631;49.168;9.848;2023-07-20T03:58:07;1.85;;;1.75;;
40501;SDS011;29631;49.168;9.848;2023-07-20T04:00:33;2.03;;;1.92;;
40501;SDS011;29631;49.168;9.848;2023-07-20T04:02:59;2.13;;;1.98;;
40501;SDS011;29631;49.168;9.848;2023-07-20T04:05:26;1.88;;;1.77;;
40501;SDS011;29631;49.168;9.848;2023-07-20T04:07:52;1.83;;;1.73;;
40501;SDS011;29631;49.168;9.848;2023-07-20T04:10:18;1.75;;;1.65;;
40501;SDS011;29631;49.168;9.848;2023-07-20T04:12:44;2.10;;;1.92;;
40501;SDS011;29631;49.168;9.848;2023-07-20T04:15:12;1.80;;;1.70;;
40501;SDS011;29631;49.168;9.848;2023-07-20T04:17:38;1.85;;;1.75;;
40501;SDS011;29631;49.168;9.848;2023-07-20T04:20:05;1.80;;;1.70;;
40501;SDS011;29631;49.168;9.848;2023-07-20T04:22:32;1.65;;;1.65;;
40501;SDS011;29631;49.168;9.848;2023-07-20T04:24:58;2.95;;;1.88;;
40501;SDS011;29631;49.168;9.848;2023-07-20T04:27:24;1.90;;;1.80;;
40501;SDS011;29631;49.168;9.848;2023-07-20T04:29:50;2.13;;;2.00;;
40501;SDS011;29631;49.168;9.848;2023-07-20T04:32:15;2.00;;;1.67;;
40501;SDS011;29631;49.168;9.848;2023-07-20T04:34:42;1.98;;;1.88;;
40501;SDS011;29631;49.168;9.848;2023-07-20T04:37:07;1.90;;;1.80;;
40501;SDS011;29631;49.168;9.848;2023-07-20T04:39:33;2.05;;;1.88;;
40501;SDS011;29631;49.168;9.848;2023-07-20T04:41:59;2.03;;;1.92;;
40501;SDS011;29631;49.168;9.848;2023-07-20T04:44:25;1.98;;;1.88;;
40501;SDS011;29631;49.168;9.848;2023-07-20T04:46:50;2.30;;;2.20;;
40501;SDS011;29631;49.168;9.848;2023-07-20T04:49:16;2.05;;;1.95;;
40501;SDS011;29631;49.168;9.848;2023-07-20T04:51:42;2.00;;;1.90;;
40501;SDS011;29631;49.168;9.848;2023-07-20T04:54:08;1.70;;;1.60;;
40501;SDS011;29631;49.168;9.848;2023-07-20T04:56:33;1.80;;;1.80;;
40501;SDS011;29631;49.168;9.848;2023-07-20T04:58:59;1.90;;;1.80;;
40501;SDS011;29631;49.168;9.848;2023-07-20T05:01:25;2.10;;;2.00;;
40501;SDS011;29631;49.168;9.848;2023-07-20T05:03:51;1.95;;;1.80;;
40501;SDS011;29631;49.168;9.848;2023-07-20T05:06:18;2.00;;;1.90;;
40501;SDS011;29631;49.168;9.848;2023-07-20T05:08:44;2.05;;;1.88;;
40501;SDS011;29631;49.168;9.848;2023-07-20T05:11:10;2.08;;;1.88;;
40501;SDS011;29631;49.168;9.848;2023-07-20T05:13:36;2.28;;;2.00;;
40501;SDS011;29631;49.168;9.848;2023-07-20T05:16:02;3.20;;;1.90;;
40501;SDS011;29631;49.168;9.848;2023-07-20T05:18:28;2.00;;;1.90;;
40501;SDS011;29631;49.168;9.848;2023-07-20T05:20:54;4.93;;;2.13;;
40501;SDS011;29631;49.168;9.848;2023-07-20T05:23:20;2.05;;;1.95;;
40501;SDS011;29631;49.168;9.848;2023-07-20T05:25:47;2.00;;;1.90;;
40501;SDS011;29631;49.168;9.848;2023-07-20T05:28:21;2.05;;;1.95;;
40501;SDS011;29631;49.168;9.848;2023-07-20T05:30:47;2.00;;;1.90;;
40501;SDS011;29631;49.168;9.848;2023-07-20T05:33:16;1.80;;;1.70;;
40501;SDS011;29631;49.168;9.848;2023-07-20T05:35:43;2.13;;;2.03;;
40501;SDS011;29631;49.168;9.848;2023-07-20T05:38:09;2.33;;;2.13;;
40501;SDS011;29631;49.168;9.848;2023-07-20T05:40:37;2.10;;;2.00;;
40501;SDS011;29631;49.168;9.848;2023-07-20T05:43:05;2.15;;;2.05;;
40501;SDS011;29631;49.168;9.848;2023-07-20T05:45:30;1.90;;;1.80;;
40501;SDS011;29631;49.168;9.848;2023-07-20T05:47:56;2.17;;;2.00;;
40501;SDS011;29631;49.168;9.848;2023-07-20T05:50:22;2.40;;;2.20;;
40501;SDS011;29631;49.168;9.848;2023-07-20T05:52:48;5.10;;;2.00;;
40501;SDS011;29631;49.168;9.848;2023-07-20T05:55:13;2.40;;;2.20;;
40501;SDS011;29631;49.168;9.848;2023-07-20T05:57:39;12.43;;;2.08;;
40501;SDS011;29631;49.168;9.848;2023-07-20T06:00:07;3.33;;;1.90;;
40501;SDS011;29631;49.168;9.848;2023-07-20T06:02:34;2.10;;;2.00;;
40501;SDS011;29631;49.168;9.848;2023-07-20T06:05:00;3.03;;;1.85;;
40501;SDS011;29631;49.168;9.848;2023-07-20T06:07:26;2.67;;;2.00;;
40501;SDS011;29631;49.168;9.848;2023-07-20T06:09:52;2.08;;;1.98;;
40501;SDS011;29631;49.168;9.848;2023-07-20T06:12:18;2.78;;;2.05;;
40501;SDS011;29631;49.168;9.848;2023-07-20T06:14:44;2.55;;;2.28;;
40501;SDS011;29631;49.168;9.848;2023-07-20T06:17:09;2.00;;;1.88;;
40501;SDS011;29631;49.168;9.848;2023-07-20T06:19:35;2.00;;;1.90;;
40501;SDS011;29631;49.168;9.848;2023-07-20T06:22:01;3.45;;;1.80;;
40501;SDS011;29631;49.168;9.848;2023-07-20T06:24:27;2.30;;;2.10;;
40501;SDS011;29631;49.168;9.848;2023-07-20T06:26:53;2.42;;;2.20;;
40501;SDS011;29631;49.168;9.848;2023-07-20T06:29:18;3.40;;;1.80;;
40501;SDS011;29631;49.168;9.848;2023-07-20T06:31:44;1.75;;;1.65;;
40501;SDS011;29631;49.168;9.848;2023-07-20T06:34:10;2.00;;;1.85;;
40501;SDS011;29631;49.168;9.848;2023-07-20T06:36:36;2.70;;;1.92;;
40501;SDS011;29631;49.168;9.848;2023-07-20T06:39:01;3.28;;;2.17;;
40501;SDS011;29631;49.168;9.848;2023-07-20T06:41:27;5.35;;;2.08;;
40501;SDS011;29631;49.168;9.848;2023-07-20T06:43:53;2.40;;;2.20;;
40501;SDS011;29631;49.168;9.848;2023-07-20T06:46:23;2.10;;;1.90;;
40501;SDS011;29631;49.168;9.848;2023-07-20T06:48:51;1.95;;;1.85;;
40501;SDS011;29631;49.168;9.848;2023-07-20T06:51:17;2.00;;;1.90;;
40501;SDS011;29631;49.168;9.848;2023-07-20T06:53:43;2.95;;;1.95;;
40501;SDS011;29631;49.168;9.848;2023-07-20T06:56:09;1.80;;;1.70;;
40501;SDS011;29631;49.168;9.848;2023-07-20T06:58:34;2.50;;;2.30;;
40501;SDS011;29631;49.168;9.848;2023-07-20T07:01:04;2.40;;;1.90;;
40501;SDS011;29631;49.168;9.848;2023-07-20T07:03:31;1.98;;;1.88;;
40501;SDS011;29631;49.168;9.848;2023-07-20T07:05:58;2.10;;;2.00;;
40501;SDS011;29631;49.168;9.848;2023-07-20T07:08:24;4.18;;;1.95;;
40501;SDS011;29631;49.168;9.848;2023-07-20T07:10:49;1.80;;;1.70;;
40501;SDS011;29631;49.168;9.848;2023-07-20T07:13:15;1.90;;;1.70;;
40501;SDS011;29631;49.168;9.848;2023-07-20T07:15:42;2.97;;;2.33;;
40501;SDS011;29631;49.168;9.848;2023-07-20T07:18:07;1.77;;;1.67;;
40501;SDS011;29631;49.168;9.848;2023-07-20T07:20:33;3.40;;;1.70;;
40501;SDS011;29631;49.168;9.848;2023-07-20T07:22:59;1.85;;;1.75;;
40501;SDS011;29631;49.168;9.848;2023-07-20T07:25:25;2.75;;;1.50;;
40501;SDS011;29631;49.168;9.848;2023-07-20T07:27:52;3.90;;;2.10;;
40501;SDS011;29631;49.168;9.848;2023-07-20T07:30:19;1.92;;;1.67;;
40501;SDS011;29631;49.168;9.848;2023-07-20T07:32:45;2.28;;;1.88;;
40501;SDS011;29631;49.168;9.848;2023-07-20T07:35:11;1.88;;;1.38;;
40501;SDS011;29631;49.168;9.848;2023-07-20T07:37:37;1.77;;;1.67;;
40501;SDS011;29631;49.168;9.848;2023-07-20T07:40:03;3.45;;;1.63;;
40501;SDS011;29631;49.168;9.848;2023-07-20T07:42:30;1.40;;;1.30;;
40501;SDS011;29631;49.168;9.848;2023-07-20T07:44:56;1.67;;;1.58;;
40501;SDS011;29631;49.168;9.848;2023-07-20T07:47:22;1.40;;;1.40;;
40501;SDS011;29631;49.168;9.848;2023-07-20T07:49:47;1.38;;;1.20;;
40501;SDS011;29631;49.168;9.848;2023-07-20T07:52:14;1.67;;;1.58;;
40501;SDS011;29631;49.168;9.848;2023-07-20T07:54:40;1.60;;;1.50;;
40501;SDS011;29631;49.168;9.848;2023-07-20T07:57:06;2.45;;;1.48;;
40501;SDS011;29631;49.168;9.848;2023-07-20T07:59:32;1.42;;;1.33;;
40501;SDS011;29631;49.168;9.848;2023-07-20T08:02:01;1.45;;;1.35;;
40501;SDS011;29631;49.168;9.848;2023-07-20T08:04:30;1.55;;;1.48;;
40501;SDS011;29631;49.168;9.848;2023-07-20T08:06:56;1.92;;;1.58;;
40501;SDS011;29631;49.168;9.848;2023-07-20T08:09:24;1.60;;;1.50;;
40501;SDS011;29631;49.168;9.848;2023-07-20T08:11:50;1.40;;;1.40;;
40501;SDS011;29631;49.168;9.848;2023-07-20T08:14:16;1.95;;;1.83;;
40501;SDS011;29631;49.168;9.848;2023-07-20T08:16:41;2.17;;;1.55;;
40501;SDS011;29631;49.168;9.848;2023-07-20T08:19:08;2.13;;;1.50;;
40501;SDS011;29631;49.168;9.848;2023-07-20T08:21:33;2.72;;;1.42;;
40501;SDS011;29631;49.168;9.848;2023-07-20T08:23:59;2.47;;;1.50;;
40501;SDS011;29631;49.168;9.848;2023-07-20T08:26:25;3.15;;;1.60;;
40501;SDS011;29631;49.168;9.848;2023-07-20T08:28:51;1.50;;;1.50;;
40501;SDS011;29631;49.168;9.848;2023-07-20T08:31:16;2.25;;;1.70;;
40501;SDS011;29631;49.168;9.848;2023-07-20T08:33:43;2.33;;;1.35;;
40501;SDS011;29631;49.168;9.848;2023-07-20T08:36:08;1.42;;;1.23;;
40501;SDS011;29631;49.168;9.848;2023-07-20T08:38:34;2.25;;;1.40;;
40501;SDS011;29631;49.168;9.848;2023-07-20T08:41:00;1.65;;;1.55;;
40501;SDS011;29631;49.168;9.848;2023-07-20T08:43:27;1.50;;;1.40;;
40501;SDS011;29631;49.168;9.848;2023-07-20T08:45:56;1.30;;;1.30;;
40501;SDS011;29631;49.168;9.848;2023-07-20T08:48:22;1.40;;;1.40;;
40501;SDS011;29631;49.168;9.848;2023-07-20T08:50:50;1.30;;;1.30;;
40501;SDS011;29631;49.168;9.848;2023-07-20T08:53:21;1.63;;;1.52;;
40501;SDS011;29631;49.168;9.848;2023-07-20T08:55:47;3.78;;;1.40;;
40501;SDS011;29631;49.168;9.848;2023-07-20T08:58:17;1.35;;;1.30;;
40501;SDS011;29631;49.168;9.848;2023-07-20T09:00:43;1.75;;;1.65;;
40501;SDS011;29631;49.168;9.848;2023-07-20T09:03:10;1.23;;;1.23;;
40501;SDS011;29631;49.168;9.848;2023-07-20T09:05:37;1.50;;;1.48;;
40501;SDS011;29631;49.168;9.848;2023-07-20T09:08:05;2.15;;;1.60;;
40501;SDS011;29631;49.168;9.848;2023-07-20T09:10:30;3.08;;;1.65;;
40501;SDS011;29631;49.168;9.848;2023-07-20T09:12:56;1.30;;;1.27;;
40501;SDS011;29631;49.168;9.848;2023-07-20T09:15:22;1.40;;;1.38;;
40501;SDS011;29631;49.168;9.848;2023-07-20T09:17:48;1.50;;;1.40;;
40501;SDS011;29631;49.168;9.848;2023-07-20T09:20:16;1.98;;;1.52;;
40501;SDS011;29631;49.168;9.848;2023-07-20T09:22:43;1.50;;;1.40;;
40501;SDS011;29631;49.168;9.848;2023-07-20T09:25:13;1.83;;;1.73;;
40501;SDS011;29631;49.168;9.848;2023-07-20T09:27:42;6.20;;;1.83;;
40501;SDS011;29631;49.168;9.848;2023-07-20T09:30:10;3.28;;;1.60;;
40501;SDS011;29631;49.168;9.848;2023-07-20T09:32:43;1.65;;;1.58;;
40501;SDS011;29631;49.168;9.848;2023-07-20T09:35:15;1.40;;;1.40;;
40501;SDS011;29631;49.168;9.848;2023-07-20T09:37:50;1.42;;;1.33;;
40501;SDS011;29631;49.168;9.848;2023-07-20T09:40:24;1.30;;;1.30;;
40501;SDS011;29631;49.168;9.848;2023-07-20T09:42:53;1.70;;;1.50;;
40501;SDS011;29631;49.168;9.848;2023-07-20T09:45:35;1.60;;;1.50;;
40501;SDS011;29631;49.168;9.848;2023-07-20T09:48:06;1.75;;;1.65;;
40501;SDS011;29631;49.168;9.848;2023-07-20T09:50:34;2.47;;;1.60;;
40501;SDS011;29631;49.168;9.848;2023-07-20T09:53:14;1.75;;;1.60;;
40501;SDS011;29631;49.168;9.848;2023-07-20T09:55:43;2.67;;;1.63;;
40501;SDS011;29631;49.168;9.848;2023-07-20T09:58:10;1.63;;;1.50;;
40501;SDS011;29631;49.168;9.848;2023-07-20T10:00:36;1.63;;;1.23;;
40501;SDS011;29631;49.168;9.848;2023-07-20T10:03:04;1.60;;;1.50;;
40501;SDS011;29631;49.168;9.848;2023-07-20T10:05:35;2.45;;;1.30;;
40501;SDS011;29631;49.168;9.848;2023-07-20T10:08:11;1.73;;;1.45;;
40501;SDS011;29631;49.168;9.848;2023-07-20T10:10:40;2.53;;;1.30;;
40501;SDS011;29631;49.168;9.848;2023-07-20T10:13:10;4.93;;;1.20;;
40501;SDS011;29631;49.168;9.848;2023-07-20T10:15:59;1.23;;;1.20;;
40501;SDS011;29631;49.168;9.848;2023-07-20T10:18:44;1.45;;;1.35;;
40501;SDS011;29631;49.168;9.848;2023-07-20T10:21:19;2.38;;;1.20;;
40501;SDS011;29631;49.168;9.848;2023-07-20T10:23:48;1.33;;;1.27;;
40501;SDS011;29631;49.168;9.848;2023-07-20T10:26:14;1.38;;;1.27;;
40501;SDS011;29631;49.168;9.848;2023-07-20T10:28:40;3.03;;;1.40;;
40501;SDS011;29631;49.168;9.848;2023-07-20T10:31:07;1.30;;;1.20;;
40501;SDS011;29631;49.168;9.848;2023-07-20T10:33:36;2.15;;;1.20;;
40501;SDS011;29631;49.168;9.848;2023-07-20T10:36:04;1.40;;;1.30;;
40501;SDS011;29631;49.168;9.848;2023-07-20T10:38:52;1.10;;;1.10;;
40501;SDS011;29631;49.168;9.848;2023-07-20T10:41:27;1.30;;;1.20;;
40501;SDS011;29631;49.168;9.848;2023-07-20T10:43:58;1.67;;;1.58;;
40501;SDS011;29631;49.168;9.848;2023-07-20T10:46:41;4.30;;;1.42;;
40501;SDS011;29631;49.168;9.848;2023-07-20T10:49:12;3.25;;;1.23;;
40501;SDS011;29631;49.168;9.848;2023-07-20T10:51:43;1.45;;;1.38;;
40501;SDS011;29631;49.168;9.848;2023-07-20T10:56:41;1.55;;;1.45;;
40501;SDS011;29631;49.168;9.848;2023-07-20T10:59:54;1.35;;;1.30;;
40501;SDS011;29631;49.168;9.848;2023-07-20T11:01:54;1.55;;;1.40;;
40501;SDS011;29631;49.168;9.848;2023-07-20T11:04:37;1.58;;;1.48;;
40501;SDS011;29631;49.168;9.848;2023-07-20T11:07:04;1.50;;;1.40;;
40501;SDS011;29631;49.168;9.848;2023-07-20T11:09:36;1.17;;;1.17;;
40501;SDS011;29631;49.168;9.848;2023-07-20T11:12:13;1.50;;;1.27;;
40501;SDS011;29631;49.168;9.848;2023-07-20T11:14:41;1.90;;;1.30;;
40501;SDS011;29631;49.168;9.848;2023-07-20T11:17:30;1.30;;;1.17;;
40501;SDS011;29631;49.168;9.848;2023-07-20T11:19:58;1.33;;;1.30;;
40501;SDS011;29631;49.168;9.848;2023-07-20T11:22:26;1.75;;;1.48;;
40501;SDS011;29631;49.168;9.848;2023-07-20T11:24:55;2.97;;;1.30;;
40501;SDS011;29631;49.168;9.848;2023-07-20T11:27:22;2.60;;;1.30;;
40501;SDS011;29631;49.168;9.848;2023-07-20T11:29:48;1.48;;;1.40;;
40501;SDS011;29631;49.168;9.848;2023-07-20T11:32:23;2.83;;;1.38;;
40501;SDS011;29631;49.168;9.848;2023-07-20T11:34:49;2.38;;;1.50;;
40501;SDS011;29631;49.168;9.848;2023-07-20T11:37:16;1.10;;;1.10;;
40501;SDS011;29631;49.168;9.848;2023-07-20T11:39:43;4.57;;;1.40;;
40501;SDS011;29631;49.168;9.848;2023-07-20T11:42:09;1.40;;;1.40;;
40501;SDS011;29631;49.168;9.848;2023-07-20T11:44:35;1.40;;;1.30;;
40501;SDS011;29631;49.168;9.848;2023-07-20T11:49:28;2.28;;;1.48;;
40501;SDS011;29631;49.168;9.848;2023-07-20T11:51:55;1.30;;;1.30;;
40501;SDS011;29631;49.168;9.848;2023-07-20T11:54:22;1.40;;;1.30;;
40501;SDS011;29631;49.168;9.848;2023-07-20T11:56:53;1.17;;;1.08;;
40501;SDS011;29631;49.168;9.848;2023-07-20T11:59:20;1.20;;;1.20;;
40501;SDS011;29631;49.168;9.848;2023-07-20T12:01:46;2.35;;;1.00;;
40501;SDS011;29631;49.168;9.848;2023-07-20T12:04:12;1.00;;;1.00;;
40501;SDS011;29631;49.168;9.848;2023-07-20T12:06:38;1.63;;;1.00;;
40501;SDS011;29631;49.168;9.848;2023-07-20T12:09:04;1.40;;;1.30;;
40501;SDS011;29631;49.168;9.848;2023-07-20T12:11:33;1.85;;;1.30;;
40501;SDS011;29631;49.168;9.848;2023-07-20T12:14:03;1.08;;;1.08;;
40501;SDS011;29631;49.168;9.848;2023-07-20T12:16:33;1.75;;;0.93;;
40501;SDS011;29631;49.168;9.848;2023-07-20T12:21:33;1.13;;;1.13;;
40501;SDS011;29631;49.168;9.848;2023-07-20T12:24:03;1.10;;;1.10;;
40501;SDS011;29631;49.168;9.848;2023-07-20T12:26:30;2.60;;;1.25;;
40501;SDS011;29631;49.168;9.848;2023-07-20T12:28:58;1.00;;;1.00;;
40501;SDS011;29631;49.168;9.848;2023-07-20T12:31:25;1.15;;;1.15;;
40501;SDS011;29631;49.168;9.848;2023-07-20T12:33:52;0.93;;;0.90;;
40501;SDS011;29631;49.168;9.848;2023-07-20T12:36:21;0.95;;;0.90;;
40501;SDS011;29631;49.168;9.848;2023-07-20T12:38:48;1.30;;;1.10;;
40501;SDS011;29631;49.168;9.848;2023-07-20T12:41:14;1.27;;;1.17;;
40501;SDS011;29631;49.168;9.848;2023-07-20T12:43:43;3.60;;;1.27;;
40501;SDS011;29631;49.168;9.848;2023-07-20T12:46:10;2.83;;;1.13;;
40501;SDS011;29631;49.168;9.848;2023-07-20T12:48:38;2.67;;;1.17;;
40501;SDS011;29631;49.168;9.848;2023-07-20T12:51:06;3.53;;;1.48;;
40501;SDS011;29631;49.168;9.848;2023-07-20T12:53:32;1.48;;;1.10;;
40501;SDS011;29631;49.168;9.848;2023-07-20T12:55:59;2.70;;;0.93;;
40501;SDS011;29631;49.168;9.848;2023-07-20T12:58:25;0.98;;;0.98;;
40501;SDS011;29631;49.168;9.848;2023-07-20T13:00:52;1.20;;;1.20;;
40501;SDS011;29631;49.168;9.848;2023-07-20T13:03:18;0.93;;;0.93;;
40501;SDS011;29631;49.168;9.848;2023-07-20T13:05:44;1.17;;;1.10;;
40501;SDS011;29631;49.168;9.848;2023-07-20T13:08:11;1.00;;;1.00;;
40501;SDS011;29631;49.168;9.848;2023-07-20T13:10:36;2.35;;;1.38;;
40501;SDS011;29631;49.168;9.848;2023-07-20T13:13:06;1.45;;;1.38;;
40501;SDS011;29631;49.168;9.848;2023-07-20T13:15:32;4.57;;;1.35;;
40501;SDS011;29631;49.168;9.848;2023-07-20T13:18:07;1.45;;;1.35;;
40501;SDS011;29631;49.168;9.848;2023-07-20T13:20:32;1.13;;;1.13;;
40501;SDS011;29631;49.168;9.848;2023-07-20T13:22:58;1.17;;;1.08;;
40501;SDS011;29631;49.168;9.848;2023-07-20T13:25:24;2.25;;;1.20;;
40501;SDS011;29631;49.168;9.848;2023-07-20T13:27:50;1.33;;;1.23;;
40501;SDS011;29631;49.168;9.848;2023-07-20T13:30:16;1.02;;;1.02;;
40501;SDS011;29631;49.168;9.848;2023-07-20T13:32:42;2.58;;;1.23;;
40501;SDS011;29631;49.168;9.848;2023-07-20T13:35:09;1.40;;;1.30;;
40501;SDS011;29631;49.168;9.848;2023-07-20T13:37:36;1.10;;;1.10;;
40501;SDS011;29631;49.168;9.848;2023-07-20T13:40:02;1.08;;;1.08;;
40501;SDS011;29631;49.168;9.848;2023-07-20T13:42:30;1.08;;;1.08;;
40501;SDS011;29631;49.168;9.848;2023-07-20T13:44:57;1.00;;;1.00;;
40501;SDS011;29631;49.168;9.848;2023-07-20T13:47:23;1.00;;;1.00;;
40501;SDS011;29631;49.168;9.848;2023-07-20T13:49:49;1.42;;;1.42;;
40501;SDS011;29631;49.168;9.848;2023-07-20T13:52:15;1.77;;;1.17;;
40501;SDS011;29631;49.168;9.848;2023-07-20T13:54:40;3.03;;;1.15;;
40501;SDS011;29631;49.168;9.848;2023-07-20T13:57:07;3.78;;;1.23;;
40501;SDS011;29631;49.168;9.848;2023-07-20T13:59:32;1.35;;;1.25;;
40501;SDS011;29631;49.168;9.848;2023-07-20T14:01:58;2.83;;;1.20;;
40501;SDS011;29631;49.168;9.848;2023-07-20T14:04:24;0.85;;;0.85;;
40501;SDS011;29631;49.168;9.848;2023-07-20T14:06:49;1.30;;;1.20;;
40501;SDS011;29631;49.168;9.848;2023-07-20T14:09:16;1.20;;;1.10;;
40501;SDS011;29631;49.168;9.848;2023-07-20T14:11:41;4.53;;;0.90;;
40501;SDS011;29631;49.168;9.848;2023-07-20T14:14:07;1.95;;;1.00;;
40501;SDS011;29631;49.168;9.848;2023-07-20T14:16:33;1.10;;;1.10;;
40501;SDS011;29631;49.168;9.848;2023-07-20T14:18:59;1.73;;;1.00;;
40501;SDS011;29631;49.168;9.848;2023-07-20T14:21:24;1.20;;;1.20;;
40501;SDS011;29631;49.168;9.848;2023-07-20T14:23:51;0.98;;;0.98;;
40501;SDS011;29631;49.168;9.848;2023-07-20T14:26:20;1.08;;;0.90;;
40501;SDS011;29631;49.168;9.848;2023-07-20T14:28:46;1.02;;;0.98;;
40501;SDS011;29631;49.168;9.848;2023-07-20T14:31:12;1.05;;;1.00;;
40501;SDS011;29631;49.168;9.848;2023-07-20T14:33:38;1.00;;;1.00;;
40501;SDS011;29631;49.168;9.848;2023-07-20T14:36:04;2.20;;;1.27;;
40501;SDS011;29631;49.168;9.848;2023-07-20T14:38:30;1.75;;;1.08;;
40501;SDS011;29631;49.168;9.848;2023-07-20T14:40:58;1.42;;;1.10;;
40501;SDS011;29631;49.168;9.848;2023-07-20T14:43:24;0.90;;;0.90;;
40501;SDS011;29631;49.168;9.848;2023-07-20T14:45:50;1.35;;;1.20;;
40501;SDS011;29631;49.168;9.848;2023-07-20T14:48:15;1.00;;;1.00;;
40501;SDS011;29631;49.168;9.848;2023-07-20T14:50:41;1.02;;;1.02;;
40501;SDS011;29631;49.168;9.848;2023-07-20T14:53:10;1.10;;;1.10;;
40501;SDS011;29631;49.168;9.848;2023-07-20T14:55:37;1.10;;;1.10;;
40501;SDS011;29631;49.168;9.848;2023-07-20T14:58:03;1.00;;;1.00;;
40501;SDS011;29631;49.168;9.848;2023-07-20T15:00:29;1.25;;;1.15;;
40501;SDS011;29631;49.168;9.848;2023-07-20T15:02:55;1.00;;;1.00;;
40501;SDS011;29631;49.168;9.848;2023-07-20T15:05:22;3.47;;;1.13;;
40501;SDS011;29631;49.168;9.848;2023-07-20T15:07:49;1.00;;;0.98;;
40501;SDS011;29631;49.168;9.848;2023-07-20T15:10:15;1.30;;;1.20;;